sensor_id;sensor_type;location;lat;lon;timestamp;P1;durP1;ratioP1;P2;durP2;ratioP2
7899;SDS011;3995;50.856;4.404;2023-03-02T00:01:55;12.55;;;8.45;;
7899;SDS011;3995;50.856;4.404;2023-03-02T00:04:26;8.43;;;7.50;;
7899;SDS011;3995;50.856;4.404;2023-03-02T00:06:58;8.65;;;7.57;;
7899;SDS011;3995;50.856;4.404;2023-03-02T00:09:28;12.73;;;8.43;;
7899;SDS011;3995;50.856;4.404;2023-03-02T00:11:56;9.02;;;7.70;;
7899;SDS011;3995;50.856;4.404;2023-03-02T00:14:23;8.90;;;7.93;;
7899;SDS011;3995;50.856;4.404;2023-03-02T00:16:50;9.40;;;8.07;;
7899;SDS011;3995;50.856;4.404;2023-03-02T00:19:19;10.10;;;8.98;;
7899;SDS011;3995;50.856;4.404;2023-03-02T00:21:46;8.00;;;7.20;;
7899;SDS011;3995;50.856;4.404;2023-03-02T00:24:13;8.63;;;7.47;;
7899;SDS011;3995;50.856;4.404;2023-03-02T00:26:40;10.00;;;7.90;;
7899;SDS011;3995;50.856;4.404;2023-03-02T00:29:08;8.73;;;6.90;;
7899;SDS011;3995;50.856;4.404;2023-03-02T00:31:36;10.35;;;8.32;;
7899;SDS011;3995;50.856;4.404;2023-03-02T00:34:03;10.07;;;7.13;;
7899;SDS011;3995;50.856;4.404;2023-03-02T00:36:32;7.75;;;6.85;;
7899;SDS011;3995;50.856;4.404;2023-03-02T00:38:59;7.85;;;7.05;;
7899;SDS011;3995;50.856;4.404;2023-03-02T00:41:28;8.68;;;7.72;;
7899;SDS011;3995;50.856;4.404;2023-03-02T00:43:56;8.10;;;7.30;;
7899;SDS011;3995;50.856;4.404;2023-03-02T00:46:23;7.88;;;7.10;;
7899;SDS011;3995;50.856;4.404;2023-03-02T00:48:52;10.43;;;7.97;;
7899;SDS011;3995;50.856;4.404;2023-03-02T00:51:19;9.30;;;7.15;;
7899;SDS011;3995;50.856;4.404;2023-03-02T00:53:48;8.32;;;7.47;;
7899;SDS011;3995;50.856;4.404;2023-03-02T00:56:15;8.55;;;7.75;;
7899;SDS011;3995;50.856;4.404;2023-03-02T00:58:43;8.93;;;7.95;;
7899;SDS011;3995;50.856;4.404;2023-03-02T01:01:10;7.65;;;6.90;;
7899;SDS011;3995;50.856;4.404;2023-03-02T01:03:38;10.63;;;7.32;;
7899;SDS011;3995;50.856;4.404;2023-03-02T01:06:12;8.65;;;6.97;;
7899;SDS011;3995;50.856;4.404;2023-03-02T01:08:41;11.27;;;7.80;;
7899;SDS011;3995;50.856;4.404;2023-03-02T01:11:12;8.23;;;7.43;;
7899;SDS011;3995;50.856;4.404;2023-03-02T01:13:40;8.40;;;6.72;;
7899;SDS011;3995;50.856;4.404;2023-03-02T01:16:08;9.75;;;7.10;;
7899;SDS011;3995;50.856;4.404;2023-03-02T01:18:35;9.82;;;7.20;;
7899;SDS011;3995;50.856;4.404;2023-03-02T01:21:04;9.98;;;7.50;;
7899;SDS011;3995;50.856;4.404;2023-03-02T01:23:32;8.05;;;7.20;;
7899;SDS011;3995;50.856;4.404;2023-03-02T01:25:59;7.82;;;7.13;;
7899;SDS011;3995;50.856;4.404;2023-03-02T01:28:29;6.90;;;6.28;;
7899;SDS011;3995;50.856;4.404;2023-03-02T01:30:55;7.60;;;6.90;;
7899;SDS011;3995;50.856;4.404;2023-03-02T01:33:25;7.20;;;6.50;;
7899;SDS011;3995;50.856;4.404;2023-03-02T01:35:52;7.50;;;6.68;;
7899;SDS011;3995;50.856;4.404;2023-03-02T01:38:20;12.60;;;6.63;;
7899;SDS011;3995;50.856;4.404;2023-03-02T01:40:47;7.22;;;6.53;;
7899;SDS011;3995;50.856;4.404;2023-03-02T01:43:14;7.20;;;6.50;;
7899;SDS011;3995;50.856;4.404;2023-03-02T01:45:45;8.60;;;6.85;;
7899;SDS011;3995;50.856;4.404;2023-03-02T01:48:16;7.20;;;6.50;;
7899;SDS011;3995;50.856;4.404;2023-03-02T01:50:47;7.10;;;6.40;;
7899;SDS011;3995;50.856;4.404;2023-03-02T01:53:15;7.40;;;6.70;;
7899;SDS011;3995;50.856;4.404;2023-03-02T01:55:42;7.45;;;6.72;;
7899;SDS011;3995;50.856;4.404;2023-03-02T01:58:11;7.05;;;5.97;;
7899;SDS011;3995;50.856;4.404;2023-03-02T02:00:41;8.15;;;7.10;;
7899;SDS011;3995;50.856;4.404;2023-03-02T02:03:11;6.97;;;6.28;;
7899;SDS011;3995;50.856;4.404;2023-03-02T02:05:45;9.65;;;6.40;;
7899;SDS011;3995;50.856;4.404;2023-03-02T02:08:20;7.35;;;6.53;;
7899;SDS011;3995;50.856;4.404;2023-03-02T02:10:48;8.55;;;6.63;;
7899;SDS011;3995;50.856;4.404;2023-03-02T02:13:16;8.13;;;5.75;;
7899;SDS011;3995;50.856;4.404;2023-03-02T02:15:44;7.03;;;6.35;;
7899;SDS011;3995;50.856;4.404;2023-03-02T02:18:12;7.35;;;5.88;;
7899;SDS011;3995;50.856;4.404;2023-03-02T02:20:40;7.05;;;6.38;;
7899;SDS011;3995;50.856;4.404;2023-03-02T02:23:13;7.00;;;6.32;;
7899;SDS011;3995;50.856;4.404;2023-03-02T02:28:40;6.63;;;6.03;;
7899;SDS011;3995;50.856;4.404;2023-03-02T02:31:11;7.10;;;5.85;;
7899;SDS011;3995;50.856;4.404;2023-03-02T02:33:42;8.40;;;7.05;;
7899;SDS011;3995;50.856;4.404;2023-03-02T02:36:14;7.63;;;6.82;;
7899;SDS011;3995;50.856;4.404;2023-03-02T02:38:45;6.95;;;5.90;;
7899;SDS011;3995;50.856;4.404;2023-03-02T02:41:16;7.60;;;6.90;;
7899;SDS011;3995;50.856;4.404;2023-03-02T02:43:47;7.00;;;6.30;;
7899;SDS011;3995;50.856;4.404;2023-03-02T02:46:14;6.50;;;5.90;;
7899;SDS011;3995;50.856;4.404;2023-03-02T02:48:42;6.50;;;5.90;;
7899;SDS011;3995;50.856;4.404;2023-03-02T02:51:09;6.70;;;6.10;;
7899;SDS011;3995;50.856;4.404;2023-03-02T02:53:47;6.50;;;5.93;;
7899;SDS011;3995;50.856;4.404;2023-03-02T02:56:24;7.55;;;5.82;;
7899;SDS011;3995;50.856;4.404;2023-03-02T02:58:52;7.68;;;6.07;;
7899;SDS011;3995;50.856;4.404;2023-03-02T03:01:23;8.52;;;6.38;;
7899;SDS011;3995;50.856;4.404;2023-03-02T03:03:51;6.50;;;5.85;;
7899;SDS011;3995;50.856;4.404;2023-03-02T03:06:22;7.45;;;6.40;;
7899;SDS011;3995;50.856;4.404;2023-03-02T03:08:52;8.55;;;6.43;;
7899;SDS011;3995;50.856;4.404;2023-03-02T03:11:22;7.20;;;6.40;;
7899;SDS011;3995;50.856;4.404;2023-03-02T03:14:03;7.32;;;5.90;;
7899;SDS011;3995;50.856;4.404;2023-03-02T03:16:33;7.68;;;5.90;;
7899;SDS011;3995;50.856;4.404;2023-03-02T03:19:04;10.50;;;6.40;;
7899;SDS011;3995;50.856;4.404;2023-03-02T03:21:35;6.07;;;5.47;;
7899;SDS011;3995;50.856;4.404;2023-03-02T03:24:03;6.47;;;5.60;;
7899;SDS011;3995;50.856;4.404;2023-03-02T03:26:32;6.43;;;5.75;;
7899;SDS011;3995;50.856;4.404;2023-03-02T03:28:59;9.98;;;6.50;;
7899;SDS011;3995;50.856;4.404;2023-03-02T03:31:27;6.40;;;5.80;;
7899;SDS011;3995;50.856;4.404;2023-03-02T03:33:55;10.32;;;6.53;;
7899;SDS011;3995;50.856;4.404;2023-03-02T03:36:24;6.03;;;5.35;;
7899;SDS011;3995;50.856;4.404;2023-03-02T03:38:52;6.65;;;5.10;;
7899;SDS011;3995;50.856;4.404;2023-03-02T03:41:19;6.72;;;6.13;;
7899;SDS011;3995;50.856;4.404;2023-03-02T03:43:48;6.28;;;5.70;;
7899;SDS011;3995;50.856;4.404;2023-03-02T03:46:16;7.13;;;5.75;;
7899;SDS011;3995;50.856;4.404;2023-03-02T03:48:43;6.53;;;5.40;;
7899;SDS011;3995;50.856;4.404;2023-03-02T03:51:10;7.72;;;6.20;;
7899;SDS011;3995;50.856;4.404;2023-03-02T03:53:38;6.60;;;5.95;;
7899;SDS011;3995;50.856;4.404;2023-03-02T03:56:06;6.78;;;5.97;;
7899;SDS011;3995;50.856;4.404;2023-03-02T03:58:33;7.22;;;6.43;;
7899;SDS011;3995;50.856;4.404;2023-03-02T04:01:02;6.95;;;6.03;;
7899;SDS011;3995;50.856;4.404;2023-03-02T04:03:29;6.88;;;5.70;;
7899;SDS011;3995;50.856;4.404;2023-03-02T04:05:57;6.85;;;5.57;;
7899;SDS011;3995;50.856;4.404;2023-03-02T04:08:24;6.55;;;5.85;;
7899;SDS011;3995;50.856;4.404;2023-03-02T04:10:51;6.55;;;5.80;;
7899;SDS011;3995;50.856;4.404;2023-03-02T04:13:18;7.78;;;5.40;;
7899;SDS011;3995;50.856;4.404;2023-03-02T04:15:46;8.60;;;5.30;;
7899;SDS011;3995;50.856;4.404;2023-03-02T04:18:15;6.07;;;5.47;;
7899;SDS011;3995;50.856;4.404;2023-03-02T04:20:42;6.57;;;5.60;;
7899;SDS011;3995;50.856;4.404;2023-03-02T04:23:09;6.85;;;5.43;;
7899;SDS011;3995;50.856;4.404;2023-03-02T04:25:36;7.45;;;5.35;;
7899;SDS011;3995;50.856;4.404;2023-03-02T04:28:03;6.40;;;5.82;;
7899;SDS011;3995;50.856;4.404;2023-03-02T04:30:31;7.50;;;5.07;;
7899;SDS011;3995;50.856;4.404;2023-03-02T04:32:58;5.68;;;5.18;;
7899;SDS011;3995;50.856;4.404;2023-03-02T04:35:27;6.00;;;5.40;;
7899;SDS011;3995;50.856;4.404;2023-03-02T04:37:54;10.45;;;5.00;;
7899;SDS011;3995;50.856;4.404;2023-03-02T04:40:21;8.57;;;5.57;;
7899;SDS011;3995;50.856;4.404;2023-03-02T04:42:48;6.25;;;5.65;;
7899;SDS011;3995;50.856;4.404;2023-03-02T04:45:15;8.98;;;5.90;;
7899;SDS011;3995;50.856;4.404;2023-03-02T04:47:43;6.05;;;5.45;;
7899;SDS011;3995;50.856;4.404;2023-03-02T04:50:11;5.82;;;5.30;;
7899;SDS011;3995;50.856;4.404;2023-03-02T04:52:54;5.65;;;5.15;;
7899;SDS011;3995;50.856;4.404;2023-03-02T04:55:22;6.95;;;5.07;;
7899;SDS011;3995;50.856;4.404;2023-03-02T04:57:51;6.60;;;5.53;;
7899;SDS011;3995;50.856;4.404;2023-03-02T05:00:19;7.03;;;5.25;;
7899;SDS011;3995;50.856;4.404;2023-03-02T05:02:47;5.82;;;5.20;;
7899;SDS011;3995;50.856;4.404;2023-03-02T05:05:15;8.05;;;5.97;;
7899;SDS011;3995;50.856;4.404;2023-03-02T05:07:44;7.25;;;5.20;;
7899;SDS011;3995;50.856;4.404;2023-03-02T05:10:12;10.02;;;5.70;;
7899;SDS011;3995;50.856;4.404;2023-03-02T05:12:42;5.22;;;4.72;;
7899;SDS011;3995;50.856;4.404;2023-03-02T05:15:22;6.30;;;5.70;;
7899;SDS011;3995;50.856;4.404;2023-03-02T05:17:50;8.00;;;5.38;;
7899;SDS011;3995;50.856;4.404;2023-03-02T05:20:18;6.20;;;5.25;;
7899;SDS011;3995;50.856;4.404;2023-03-02T05:22:45;7.28;;;5.13;;
7899;SDS011;3995;50.856;4.404;2023-03-02T05:25:14;6.72;;;5.18;;
7899;SDS011;3995;50.856;4.404;2023-03-02T05:27:41;8.30;;;6.13;;
7899;SDS011;3995;50.856;4.404;2023-03-02T05:30:09;8.18;;;5.30;;
7899;SDS011;3995;50.856;4.404;2023-03-02T05:32:37;5.70;;;5.10;;
7899;SDS011;3995;50.856;4.404;2023-03-02T05:35:05;11.50;;;5.30;;
7899;SDS011;3995;50.856;4.404;2023-03-02T05:37:32;6.75;;;5.60;;
7899;SDS011;3995;50.856;4.404;2023-03-02T05:40:00;6.60;;;5.90;;
7899;SDS011;3995;50.856;4.404;2023-03-02T05:42:28;5.90;;;5.30;;
7899;SDS011;3995;50.856;4.404;2023-03-02T05:44:56;7.65;;;5.70;;
7899;SDS011;3995;50.856;4.404;2023-03-02T05:47:23;5.80;;;5.30;;
7899;SDS011;3995;50.856;4.404;2023-03-02T05:49:51;6.10;;;5.45;;
7899;SDS011;3995;50.856;4.404;2023-03-02T05:52:18;6.90;;;5.75;;
7899;SDS011;3995;50.856;4.404;2023-03-02T05:54:45;6.50;;;5.60;;
7899;SDS011;3995;50.856;4.404;2023-03-02T05:57:12;6.10;;;4.75;;
7899;SDS011;3995;50.856;4.404;2023-03-02T05:59:41;8.93;;;5.70;;
7899;SDS011;3995;50.856;4.404;2023-03-02T06:02:10;5.65;;;5.15;;
7899;SDS011;3995;50.856;4.404;2023-03-02T06:04:38;14.40;;;5.85;;
7899;SDS011;3995;50.856;4.404;2023-03-02T06:07:07;5.68;;;4.80;;
7899;SDS011;3995;50.856;4.404;2023-03-02T06:09:35;9.85;;;5.68;;
7899;SDS011;3995;50.856;4.404;2023-03-02T06:12:03;5.35;;;4.82;;
7899;SDS011;3995;50.856;4.404;2023-03-02T06:14:31;8.20;;;5.70;;
7899;SDS011;3995;50.856;4.404;2023-03-02T06:17:00;6.43;;;5.20;;
7899;SDS011;3995;50.856;4.404;2023-03-02T06:19:27;7.45;;;5.03;;
7899;SDS011;3995;50.856;4.404;2023-03-02T06:21:54;9.30;;;6.13;;
7899;SDS011;3995;50.856;4.404;2023-03-02T06:24:21;11.95;;;5.45;;
7899;SDS011;3995;50.856;4.404;2023-03-02T06:26:48;19.17;;;5.90;;
7899;SDS011;3995;50.856;4.404;2023-03-02T06:29:15;14.70;;;6.25;;
7899;SDS011;3995;50.856;4.404;2023-03-02T06:31:42;8.25;;;5.30;;
7899;SDS011;3995;50.856;4.404;2023-03-02T06:34:11;9.93;;;5.47;;
7899;SDS011;3995;50.856;4.404;2023-03-02T06:36:38;14.88;;;6.20;;
7899;SDS011;3995;50.856;4.404;2023-03-02T06:39:06;6.57;;;5.80;;
7899;SDS011;3995;50.856;4.404;2023-03-02T06:41:39;9.25;;;5.35;;
7899;SDS011;3995;50.856;4.404;2023-03-02T06:44:07;10.13;;;5.40;;
7899;SDS011;3995;50.856;4.404;2023-03-02T06:46:34;8.30;;;4.78;;
7899;SDS011;3995;50.856;4.404;2023-03-02T06:49:01;12.55;;;9.45;;
7899;SDS011;3995;50.856;4.404;2023-03-02T06:51:33;14.82;;;5.70;;
7899;SDS011;3995;50.856;4.404;2023-03-02T06:54:00;13.40;;;5.55;;
7899;SDS011;3995;50.856;4.404;2023-03-02T06:56:28;10.95;;;6.00;;
7899;SDS011;3995;50.856;4.404;2023-03-02T06:58:54;12.40;;;6.55;;
7899;SDS011;3995;50.856;4.404;2023-03-02T07:01:22;9.77;;;5.60;;
7899;SDS011;3995;50.856;4.404;2023-03-02T07:03:49;9.98;;;5.85;;
7899;SDS011;3995;50.856;4.404;2023-03-02T07:06:16;9.77;;;5.55;;
7899;SDS011;3995;50.856;4.404;2023-03-02T07:08:45;7.78;;;5.93;;
7899;SDS011;3995;50.856;4.404;2023-03-02T07:11:12;15.27;;;5.78;;
7899;SDS011;3995;50.856;4.404;2023-03-02T07:13:40;14.70;;;6.60;;
7899;SDS011;3995;50.856;4.404;2023-03-02T07:16:08;13.18;;;6.18;;
7899;SDS011;3995;50.856;4.404;2023-03-02T07:18:36;12.20;;;5.95;;
7899;SDS011;3995;50.856;4.404;2023-03-02T07:21:07;18.98;;;6.65;;
7899;SDS011;3995;50.856;4.404;2023-03-02T07:23:35;11.02;;;6.60;;
7899;SDS011;3995;50.856;4.404;2023-03-02T07:26:04;22.83;;;7.13;;
7899;SDS011;3995;50.856;4.404;2023-03-02T07:28:33;10.02;;;6.22;;
7899;SDS011;3995;50.856;4.404;2023-03-02T07:31:00;16.83;;;5.88;;
7899;SDS011;3995;50.856;4.404;2023-03-02T07:33:27;14.95;;;7.13;;
7899;SDS011;3995;50.856;4.404;2023-03-02T07:35:55;12.05;;;5.68;;
7899;SDS011;3995;50.856;4.404;2023-03-02T07:38:22;15.65;;;6.57;;
7899;SDS011;3995;50.856;4.404;2023-03-02T07:40:50;7.03;;;5.63;;
7899;SDS011;3995;50.856;4.404;2023-03-02T07:43:19;8.40;;;5.75;;
7899;SDS011;3995;50.856;4.404;2023-03-02T07:45:48;14.52;;;7.07;;
7899;SDS011;3995;50.856;4.404;2023-03-02T07:48:15;9.45;;;6.63;;
7899;SDS011;3995;50.856;4.404;2023-03-02T07:50:43;10.48;;;6.85;;
7899;SDS011;3995;50.856;4.404;2023-03-02T07:53:10;13.18;;;7.00;;
7899;SDS011;3995;50.856;4.404;2023-03-02T07:55:39;8.30;;;5.85;;
7899;SDS011;3995;50.856;4.404;2023-03-02T07:58:07;11.50;;;6.95;;
7899;SDS011;3995;50.856;4.404;2023-03-02T08:00:35;12.70;;;6.93;;
7899;SDS011;3995;50.856;4.404;2023-03-02T08:03:03;12.45;;;6.85;;
7899;SDS011;3995;50.856;4.404;2023-03-02T08:05:31;13.43;;;7.30;;
7899;SDS011;3995;50.856;4.404;2023-03-02T08:07:58;10.20;;;6.25;;
7899;SDS011;3995;50.856;4.404;2023-03-02T08:10:25;7.55;;;6.45;;
7899;SDS011;3995;50.856;4.404;2023-03-02T08:12:53;8.23;;;6.60;;
7899;SDS011;3995;50.856;4.404;2023-03-02T08:15:20;8.65;;;6.25;;
7899;SDS011;3995;50.856;4.404;2023-03-02T08:17:49;9.30;;;6.57;;
7899;SDS011;3995;50.856;4.404;2023-03-02T08:20:17;8.52;;;7.00;;
7899;SDS011;3995;50.856;4.404;2023-03-02T08:22:44;16.90;;;7.07;;
7899;SDS011;3995;50.856;4.404;2023-03-02T08:25:12;8.40;;;7.00;;
7899;SDS011;3995;50.856;4.404;2023-03-02T08:27:39;14.40;;;6.47;;
7899;SDS011;3995;50.856;4.404;2023-03-02T08:30:06;8.10;;;6.47;;
7899;SDS011;3995;50.856;4.404;2023-03-02T08:32:34;7.65;;;5.95;;
7899;SDS011;3995;50.856;4.404;2023-03-02T08:35:03;8.30;;;6.80;;
7899;SDS011;3995;50.856;4.404;2023-03-02T08:37:32;7.10;;;6.40;;
7899;SDS011;3995;50.856;4.404;2023-03-02T08:40:00;7.50;;;6.55;;
7899;SDS011;3995;50.856;4.404;2023-03-02T08:42:28;13.73;;;6.88;;
7899;SDS011;3995;50.856;4.404;2023-03-02T08:44:55;11.45;;;6.88;;
7899;SDS011;3995;50.856;4.404;2023-03-02T08:47:22;12.00;;;7.28;;
7899;SDS011;3995;50.856;4.404;2023-03-02T08:49:49;8.43;;;7.20;;
7899;SDS011;3995;50.856;4.404;2023-03-02T08:52:17;11.38;;;6.90;;
7899;SDS011;3995;50.856;4.404;2023-03-02T08:54:44;22.02;;;7.78;;
7899;SDS011;3995;50.856;4.404;2023-03-02T08:57:12;18.80;;;7.57;;
7899;SDS011;3995;50.856;4.404;2023-03-02T08:59:39;10.98;;;6.55;;
7899;SDS011;3995;50.856;4.404;2023-03-02T09:02:09;12.30;;;6.85;;
7899;SDS011;3995;50.856;4.404;2023-03-02T09:04:36;16.95;;;8.00;;
7899;SDS011;3995;50.856;4.404;2023-03-02T09:07:03;8.77;;;6.80;;
7899;SDS011;3995;50.856;4.404;2023-03-02T09:09:33;7.50;;;6.65;;
7899;SDS011;3995;50.856;4.404;2023-03-02T09:12:00;12.00;;;7.18;;
7899;SDS011;3995;50.856;4.404;2023-03-02T09:14:28;11.57;;;6.82;;
7899;SDS011;3995;50.856;4.404;2023-03-02T09:16:55;14.00;;;7.40;;
7899;SDS011;3995;50.856;4.404;2023-03-02T09:19:23;14.10;;;7.13;;
7899;SDS011;3995;50.856;4.404;2023-03-02T09:21:50;8.95;;;6.70;;
7899;SDS011;3995;50.856;4.404;2023-03-02T09:24:17;10.35;;;6.80;;
7899;SDS011;3995;50.856;4.404;2023-03-02T09:26:46;10.60;;;6.95;;
7899;SDS011;3995;50.856;4.404;2023-03-02T09:29:13;9.38;;;7.20;;
7899;SDS011;3995;50.856;4.404;2023-03-02T09:31:41;10.35;;;6.82;;
7899;SDS011;3995;50.856;4.404;2023-03-02T09:34:08;8.60;;;7.10;;
7899;SDS011;3995;50.856;4.404;2023-03-02T09:36:35;8.52;;;7.30;;
7899;SDS011;3995;50.856;4.404;2023-03-02T09:39:03;9.02;;;7.80;;
7899;SDS011;3995;50.856;4.404;2023-03-02T09:41:37;8.07;;;7.15;;
7899;SDS011;3995;50.856;4.404;2023-03-02T09:44:43;10.38;;;7.80;;
7899;SDS011;3995;50.856;4.404;2023-03-02T09:47:23;9.55;;;7.78;;
7899;SDS011;3995;50.856;4.404;2023-03-02T09:49:57;12.68;;;7.90;;
7899;SDS011;3995;50.856;4.404;2023-03-02T09:52:32;14.15;;;8.20;;
7899;SDS011;3995;50.856;4.404;2023-03-02T09:55:05;12.88;;;9.32;;
7899;SDS011;3995;50.856;4.404;2023-03-02T09:57:41;12.73;;;8.68;;
7899;SDS011;3995;50.856;4.404;2023-03-02T10:00:11;8.90;;;8.00;;
7899;SDS011;3995;50.856;4.404;2023-03-02T10:02:43;10.85;;;8.48;;
7899;SDS011;3995;50.856;4.404;2023-03-02T10:05:15;18.10;;;9.30;;
7899;SDS011;3995;50.856;4.404;2023-03-02T10:07:46;12.38;;;9.20;;
7899;SDS011;3995;50.856;4.404;2023-03-02T10:10:20;16.35;;;9.88;;
7899;SDS011;3995;50.856;4.404;2023-03-02T10:15:45;18.13;;;9.77;;
7899;SDS011;3995;50.856;4.404;2023-03-02T10:18:20;11.60;;;9.52;;
7899;SDS011;3995;50.856;4.404;2023-03-02T10:20:50;12.82;;;9.75;;
7899;SDS011;3995;50.856;4.404;2023-03-02T10:23:30;12.63;;;9.30;;
7899;SDS011;3995;50.856;4.404;2023-03-02T10:26:08;12.15;;;9.45;;
7899;SDS011;3995;50.856;4.404;2023-03-02T10:28:51;14.27;;;8.88;;
7899;SDS011;3995;50.856;4.404;2023-03-02T10:31:26;14.20;;;9.68;;
7899;SDS011;3995;50.856;4.404;2023-03-02T10:33:56;11.25;;;9.77;;
7899;SDS011;3995;50.856;4.404;2023-03-02T10:36:24;14.40;;;8.98;;
7899;SDS011;3995;50.856;4.404;2023-03-02T10:38:53;14.35;;;9.27;;
7899;SDS011;3995;50.856;4.404;2023-03-02T10:41:22;15.95;;;9.73;;
7899;SDS011;3995;50.856;4.404;2023-03-02T10:43:54;12.98;;;9.45;;
7899;SDS011;3995;50.856;4.404;2023-03-02T10:46:25;12.05;;;9.93;;
7899;SDS011;3995;50.856;4.404;2023-03-02T10:48:53;14.57;;;10.43;;
7899;SDS011;3995;50.856;4.404;2023-03-02T10:51:23;14.15;;;11.20;;
7899;SDS011;3995;50.856;4.404;2023-03-02T10:54:01;10.60;;;9.25;;
7899;SDS011;3995;50.856;4.404;2023-03-02T10:56:32;13.10;;;9.20;;
7899;SDS011;3995;50.856;4.404;2023-03-02T10:59:10;15.52;;;9.90;;
7899;SDS011;3995;50.856;4.404;2023-03-02T11:01:38;13.15;;;10.32;;
7899;SDS011;3995;50.856;4.404;2023-03-02T11:04:11;12.73;;;9.20;;
7899;SDS011;3995;50.856;4.404;2023-03-02T11:06:41;13.95;;;10.23;;
7899;SDS011;3995;50.856;4.404;2023-03-02T11:09:11;13.65;;;10.25;;
7899;SDS011;3995;50.856;4.404;2023-03-02T11:11:39;14.45;;;11.20;;
7899;SDS011;3995;50.856;4.404;2023-03-02T11:14:18;11.18;;;10.00;;
7899;SDS011;3995;50.856;4.404;2023-03-02T11:16:47;15.48;;;10.90;;
7899;SDS011;3995;50.856;4.404;2023-03-02T11:19:18;12.20;;;10.70;;
7899;SDS011;3995;50.856;4.404;2023-03-02T11:21:52;13.82;;;10.13;;
7899;SDS011;3995;50.856;4.404;2023-03-02T11:24:27;14.43;;;10.95;;
7899;SDS011;3995;50.856;4.404;2023-03-02T11:26:59;12.35;;;11.02;;
7899;SDS011;3995;50.856;4.404;2023-03-02T11:29:32;17.13;;;10.25;;
7899;SDS011;3995;50.856;4.404;2023-03-02T11:32:04;14.20;;;10.02;;
7899;SDS011;3995;50.856;4.404;2023-03-02T11:34:39;17.25;;;9.45;;
7899;SDS011;3995;50.856;4.404;2023-03-02T11:37:13;12.27;;;10.38;;
7899;SDS011;3995;50.856;4.404;2023-03-02T11:39:52;14.90;;;10.77;;
7899;SDS011;3995;50.856;4.404;2023-03-02T11:42:28;14.98;;;11.60;;
7899;SDS011;3995;50.856;4.404;2023-03-02T11:45:01;12.60;;;10.38;;
7899;SDS011;3995;50.856;4.404;2023-03-02T11:47:34;12.43;;;11.10;;
7899;SDS011;3995;50.856;4.404;2023-03-02T11:50:03;15.13;;;10.85;;
7899;SDS011;3995;50.856;4.404;2023-03-02T11:52:32;13.25;;;11.02;;
7899;SDS011;3995;50.856;4.404;2023-03-02T11:55:03;12.45;;;11.15;;
7899;SDS011;3995;50.856;4.404;2023-03-02T11:57:39;11.40;;;10.20;;
7899;SDS011;3995;50.856;4.404;2023-03-02T12:00:21;17.35;;;11.07;;
7899;SDS011;3995;50.856;4.404;2023-03-02T12:03:01;14.40;;;10.50;;
7899;SDS011;3995;50.856;4.404;2023-03-02T12:05:31;16.50;;;11.20;;
7899;SDS011;3995;50.856;4.404;2023-03-02T12:08:01;12.75;;;10.55;;
7899;SDS011;3995;50.856;4.404;2023-03-02T12:10:31;18.33;;;9.57;;
7899;SDS011;3995;50.856;4.404;2023-03-02T12:13:06;14.80;;;10.73;;
7899;SDS011;3995;50.856;4.404;2023-03-02T12:15:44;11.60;;;10.40;;
7899;SDS011;3995;50.856;4.404;2023-03-02T12:21:37;14.57;;;11.10;;
7899;SDS011;3995;50.856;4.404;2023-03-02T12:24:40;16.58;;;10.57;;
7899;SDS011;3995;50.856;4.404;2023-03-02T12:27:21;12.75;;;10.65;;
7899;SDS011;3995;50.856;4.404;2023-03-02T12:29:53;13.23;;;11.20;;
7899;SDS011;3995;50.856;4.404;2023-03-02T12:32:35;14.43;;;11.48;;
7899;SDS011;3995;50.856;4.404;2023-03-02T12:35:07;11.65;;;10.45;;
7899;SDS011;3995;50.856;4.404;2023-03-02T12:37:40;11.82;;;10.10;;
7899;SDS011;3995;50.856;4.404;2023-03-02T12:40:24;12.60;;;10.50;;
7899;SDS011;3995;50.856;4.404;2023-03-02T12:46:15;18.73;;;10.32;;
7899;SDS011;3995;50.856;4.404;2023-03-02T12:48:57;13.55;;;10.70;;
7899;SDS011;3995;50.856;4.404;2023-03-02T12:51:28;12.05;;;10.82;;
7899;SDS011;3995;50.856;4.404;2023-03-02T12:54:02;14.25;;;10.45;;
7899;SDS011;3995;50.856;4.404;2023-03-02T12:56:30;12.20;;;10.85;;
7899;SDS011;3995;50.856;4.404;2023-03-02T12:58:58;14.90;;;9.98;;
7899;SDS011;3995;50.856;4.404;2023-03-02T13:01:27;13.63;;;9.55;;
7899;SDS011;3995;50.856;4.404;2023-03-02T13:03:55;11.10;;;9.45;;
7899;SDS011;3995;50.856;4.404;2023-03-02T13:06:26;15.13;;;10.63;;
7899;SDS011;3995;50.856;4.404;2023-03-02T13:08:56;12.13;;;10.73;;
7899;SDS011;3995;50.856;4.404;2023-03-02T13:11:25;14.20;;;11.65;;
7899;SDS011;3995;50.856;4.404;2023-03-02T13:13:56;12.68;;;11.23;;
7899;SDS011;3995;50.856;4.404;2023-03-02T13:16:24;16.83;;;11.30;;
7899;SDS011;3995;50.856;4.404;2023-03-02T13:18:57;16.05;;;11.50;;
7899;SDS011;3995;50.856;4.404;2023-03-02T13:21:28;16.10;;;10.55;;
7899;SDS011;3995;50.856;4.404;2023-03-02T13:23:57;12.65;;;10.68;;
7899;SDS011;3995;50.856;4.404;2023-03-02T13:26:26;13.07;;;10.95;;
7899;SDS011;3995;50.856;4.404;2023-03-02T13:29:02;11.60;;;10.45;;
7899;SDS011;3995;50.856;4.404;2023-03-02T13:31:31;12.15;;;10.77;;
7899;SDS011;3995;50.856;4.404;2023-03-02T13:34:01;15.68;;;10.73;;
7899;SDS011;3995;50.856;4.404;2023-03-02T13:36:28;21.30;;;11.55;;
7899;SDS011;3995;50.856;4.404;2023-03-02T13:39:00;13.95;;;10.60;;
7899;SDS011;3995;50.856;4.404;2023-03-02T13:41:31;13.25;;;10.80;;
7899;SDS011;3995;50.856;4.404;2023-03-02T13:44:10;15.75;;;11.93;;
7899;SDS011;3995;50.856;4.404;2023-03-02T13:46:43;20.67;;;10.60;;
7899;SDS011;3995;50.856;4.404;2023-03-02T13:49:23;16.20;;;10.73;;
7899;SDS011;3995;50.856;4.404;2023-03-02T13:51:55;13.35;;;10.80;;
7899;SDS011;3995;50.856;4.404;2023-03-02T13:54:27;14.98;;;10.60;;
7899;SDS011;3995;50.856;4.404;2023-03-02T13:56:56;11.57;;;9.73;;
7899;SDS011;3995;50.856;4.404;2023-03-02T13:59:25;14.68;;;11.52;;
7899;SDS011;3995;50.856;4.404;2023-03-02T14:01:53;16.00;;;11.07;;
7899;SDS011;3995;50.856;4.404;2023-03-02T14:04:22;15.05;;;11.00;;
7899;SDS011;3995;50.856;4.404;2023-03-02T14:06:49;12.00;;;10.52;;
7899;SDS011;3995;50.856;4.404;2023-03-02T14:09:17;11.38;;;9.77;;
7899;SDS011;3995;50.856;4.404;2023-03-02T14:11:45;13.10;;;10.32;;
7899;SDS011;3995;50.856;4.404;2023-03-02T14:14:16;17.05;;;11.05;;
7899;SDS011;3995;50.856;4.404;2023-03-02T14:16:46;17.25;;;10.43;;
7899;SDS011;3995;50.856;4.404;2023-03-02T14:19:14;11.30;;;9.98;;
7899;SDS011;3995;50.856;4.404;2023-03-02T14:21:44;11.88;;;9.38;;
7899;SDS011;3995;50.856;4.404;2023-03-02T14:24:12;13.07;;;10.85;;
7899;SDS011;3995;50.856;4.404;2023-03-02T14:26:39;12.50;;;9.85;;
7899;SDS011;3995;50.856;4.404;2023-03-02T14:29:13;19.73;;;11.15;;
7899;SDS011;3995;50.856;4.404;2023-03-02T14:31:47;12.68;;;10.25;;
7899;SDS011;3995;50.856;4.404;2023-03-02T14:34:15;16.50;;;10.73;;
7899;SDS011;3995;50.856;4.404;2023-03-02T14:36:45;13.20;;;10.63;;
7899;SDS011;3995;50.856;4.404;2023-03-02T14:39:17;16.50;;;11.40;;
7899;SDS011;3995;50.856;4.404;2023-03-02T14:41:47;15.55;;;11.30;;
7899;SDS011;3995;50.856;4.404;2023-03-02T14:44:15;15.10;;;9.90;;
7899;SDS011;3995;50.856;4.404;2023-03-02T14:46:42;11.88;;;9.85;;
7899;SDS011;3995;50.856;4.404;2023-03-02T14:49:09;11.40;;;9.60;;
7899;SDS011;3995;50.856;4.404;2023-03-02T14:51:37;16.27;;;9.95;;
7899;SDS011;3995;50.856;4.404;2023-03-02T14:54:11;14.15;;;9.88;;
7899;SDS011;3995;50.856;4.404;2023-03-02T14:56:43;9.55;;;8.52;;
7899;SDS011;3995;50.856;4.404;2023-03-02T14:59:12;13.10;;;10.10;;
7899;SDS011;3995;50.856;4.404;2023-03-02T15:01:40;12.43;;;8.43;;
7899;SDS011;3995;50.856;4.404;2023-03-02T15:04:08;10.57;;;9.05;;
7899;SDS011;3995;50.856;4.404;2023-03-02T15:06:36;13.55;;;10.25;;
7899;SDS011;3995;50.856;4.404;2023-03-02T15:09:04;14.73;;;9.70;;
7899;SDS011;3995;50.856;4.404;2023-03-02T15:11:33;15.82;;;8.77;;
7899;SDS011;3995;50.856;4.404;2023-03-02T15:14:01;17.48;;;9.38;;
7899;SDS011;3995;50.856;4.404;2023-03-02T15:16:28;13.85;;;9.27;;
7899;SDS011;3995;50.856;4.404;2023-03-02T15:18:55;12.85;;;8.65;;
7899;SDS011;3995;50.856;4.404;2023-03-02T15:21:23;15.15;;;9.38;;
7899;SDS011;3995;50.856;4.404;2023-03-02T15:23:50;9.05;;;8.15;;
7899;SDS011;3995;50.856;4.404;2023-03-02T15:26:18;12.60;;;8.85;;
7899;SDS011;3995;50.856;4.404;2023-03-02T15:28:49;12.95;;;9.65;;
7899;SDS011;3995;50.856;4.404;2023-03-02T15:31:17;10.45;;;9.07;;
7899;SDS011;3995;50.856;4.404;2023-03-02T15:33:45;13.70;;;9.20;;